Time;durP1;ratioP1;P1;durP2;ratioP2;P2;SDS_P1;SDS_P2;PMS_P1;PMS_P2;Temp;Humidity;BMP_temperature;BMP_pressure;BME280_temperature;BME280_humidity;BME280_pressure;Samples;Min_cycle;Max_cycle;Signal;HPM_P1;HPM_P2
2023/09/17 00:01:13;;;;;;;57.80;3.50;;;;;;;;;;4953194;28;20471;-71
2023/09/17 00:03:41;;;;;;;57.57;3.30;;;;;;;;;;4953087;28;20964;-73
2023/09/17 00:06:09;;;;;;;57.40;3.20;;;;;;;;;;4952996;28;20959;-72
2023/09/17 00:08:37;;;;;;;57.87;3.30;;;;;;;;;;4952877;28;20463;-72
2023/09/17 00:11:04;;;;;;;57.63;2.90;;;;;;;;;;4953137;28;20459;-72
2023/09/17 00:13:31;;;;;;;58.27;3.60;;;;;;;;;;4953100;28;20449;-73
2023/09/17 00:16:00;;;;;;;57.87;2.97;;;;;;;;;;4952891;28;20544;-72
2023/09/17 00:18:28;;;;;;;56.97;2.80;;;;;;;;;;4952725;28;20551;-73
2023/09/17 00:20:55;;;;;;;58.00;3.30;;;;;;;;;;4953063;28;20455;-73
2023/09/17 00:23:22;;;;;;;56.77;2.80;;;;;;;;;;4952927;28;20441;-72
2023/09/17 00:25:49;;;;;;;58.07;3.67;;;;;;;;;;4952673;28;21015;-73
2023/09/17 00:28:17;;;;;;;57.07;2.90;;;;;;;;;;4952941;28;20968;-72
2023/09/17 00:30:44;;;;;;;59.10;3.30;;;;;;;;;;4952915;28;20475;-73
2023/09/17 00:33:11;;;;;;;57.70;3.37;;;;;;;;;;4953139;28;20455;-72
2023/09/17 00:35:39;;;;;;;57.30;2.97;;;;;;;;;;4952855;28;20444;-73
2023/09/17 00:38:06;;;;;;;58.27;3.63;;;;;;;;;;4952283;28;20480;-73
2023/09/17 00:40:37;;;;;;;57.50;3.67;;;;;;;;;;4952858;28;20452;-73
2023/09/17 00:43:04;;;;;;;56.80;2.70;;;;;;;;;;4952699;28;20463;-73
2023/09/17 00:45:31;;;;;;;57.43;3.53;;;;;;;;;;4952528;28;20516;-71
2023/09/17 00:48:00;;;;;;;57.57;3.50;;;;;;;;;;4952585;28;20473;-73
2023/09/17 00:50:27;;;;;;;57.40;3.00;;;;;;;;;;4952672;28;20460;-72
2023/09/17 00:52:56;;;;;;;57.10;3.20;;;;;;;;;;4952660;28;20969;-72
2023/09/17 00:55:23;;;;;;;58.50;3.50;;;;;;;;;;4949012;28;22132;-73
2023/09/17 00:57:51;;;;;;;56.73;2.60;;;;;;;;;;4940122;28;20476;-72
2023/09/17 01:00:21;;;;;;;57.40;3.37;;;;;;;;;;4941464;28;20450;-72
2023/09/17 01:02:48;;;;;;;57.50;3.47;;;;;;;;;;4946736;28;20461;-72
2023/09/17 01:05:15;;;;;;;57.90;3.37;;;;;;;;;;4942907;28;20855;-73
2023/09/17 01:07:43;;;;;;;57.50;3.33;;;;;;;;;;4938179;29;20502;-73
2023/09/17 01:10:13;;;;;;;57.20;3.30;;;;;;;;;;4943510;28;20462;-73
2023/09/17 01:12:41;;;;;;;58.67;3.70;;;;;;;;;;4933712;29;20453;-74
2023/09/17 01:15:09;;;;;;;57.50;3.10;;;;;;;;;;4933288;29;20461;-74
2023/09/17 01:17:36;;;;;;;57.17;3.10;;;;;;;;;;4933074;29;20477;-73
2023/09/17 01:20:20;;;;;;;56.83;2.90;;;;;;;;;;4948952;29;20757;-73
2023/09/17 01:22:49;;;;;;;57.20;2.90;;;;;;;;;;4952773;28;20456;-73
2023/09/17 01:25:22;;;;;;;57.83;3.50;;;;;;;;;;4952109;28;20568;-71
2023/09/17 01:27:50;;;;;;;57.67;3.10;;;;;;;;;;4952109;28;20981;-73
2023/09/17 01:30:21;;;;;;;57.20;3.10;;;;;;;;;;4952166;28;20459;-73
2023/09/17 01:32:48;;;;;;;57.77;3.43;;;;;;;;;;4952112;28;20488;-72
2023/09/17 01:35:16;;;;;;;57.20;3.50;;;;;;;;;;4952170;28;20463;-72
2023/09/17 01:37:45;;;;;;;57.17;2.87;;;;;;;;;;4952000;28;20480;-73
2023/09/17 01:40:13;;;;;;;56.90;3.00;;;;;;;;;;4952050;28;21024;-71
2023/09/17 01:42:40;;;;;;;58.90;3.33;;;;;;;;;;4952263;28;20456;-73
2023/09/17 01:45:10;;;;;;;57.40;3.43;;;;;;;;;;4951883;28;20453;-73
2023/09/17 01:47:37;;;;;;;57.70;3.37;;;;;;;;;;4952598;28;20477;-73
2023/09/17 01:50:04;;;;;;;57.80;3.47;;;;;;;;;;4955553;28;20457;-72
2023/09/17 01:52:34;;;;;;;57.80;3.50;;;;;;;;;;4955582;28;20937;-72
2023/09/17 01:55:03;;;;;;;57.10;3.00;;;;;;;;;;4955471;28;20877;-73
2023/09/17 01:57:31;;;;;;;57.90;3.67;;;;;;;;;;4955116;28;20524;-72
2023/09/17 01:59:58;;;;;;;57.70;3.37;;;;;;;;;;4954923;28;20449;-73
2023/09/17 02:02:27;;;;;;;57.97;3.23;;;;;;;;;;4944944;28;20831;-72
2023/09/17 02:04:54;;;;;;;57.30;3.20;;;;;;;;;;4944110;29;20536;-72
2023/09/17 02:07:22;;;;;;;57.80;3.77;;;;;;;;;;4935652;29;20504;-73
2023/09/17 02:09:49;;;;;;;57.10;3.00;;;;;;;;;;4936113;29;20458;-72
2023/09/17 02:12:16;;;;;;;57.13;2.93;;;;;;;;;;4936056;29;20997;-73
2023/09/17 02:14:43;;;;;;;57.00;3.03;;;;;;;;;;4936167;29;20458;-73
2023/09/17 02:17:10;;;;;;;57.10;2.60;;;;;;;;;;4935816;29;20480;-72
2023/09/17 02:19:39;;;;;;;57.10;3.07;;;;;;;;;;4936146;29;20454;-72
2023/09/17 02:22:06;;;;;;;57.10;3.10;;;;;;;;;;4935944;29;20457;-73
2023/09/17 02:24:33;;;;;;;57.60;2.97;;;;;;;;;;4946990;29;20459;-72
2023/09/17 02:27:00;;;;;;;56.87;3.10;;;;;;;;;;4954786;28;20534;-73
2023/09/17 02:29:27;;;;;;;57.20;3.17;;;;;;;;;;4954957;28;20452;-73
2023/09/17 02:31:55;;;;;;;57.00;3.10;;;;;;;;;;4955002;28;20459;-73
2023/09/17 02:34:22;;;;;;;57.70;3.40;;;;;;;;;;4954875;28;20480;-74
2023/09/17 02:36:50;;;;;;;57.37;3.63;;;;;;;;;;4954402;28;20471;-73
2023/09/17 02:39:17;;;;;;;56.67;2.63;;;;;;;;;;4954408;28;20464;-72
2023/09/17 02:41:45;;;;;;;57.43;3.07;;;;;;;;;;4955061;28;21160;-72
2023/09/17 02:44:13;;;;;;;56.70;2.90;;;;;;;;;;4954789;28;20449;-73
2023/09/17 02:46:40;;;;;;;57.30;2.73;;;;;;;;;;4954264;28;20505;-73
2023/09/17 02:49:07;;;;;;;57.80;3.70;;;;;;;;;;4954480;28;20457;-72
2023/09/17 02:51:35;;;;;;;57.23;3.20;;;;;;;;;;4954362;28;20941;-74
2023/09/17 02:54:03;;;;;;;57.20;3.07;;;;;;;;;;4954659;28;20451;-73
2023/09/17 02:56:30;;;;;;;57.40;3.20;;;;;;;;;;4945441;28;20468;-73
2023/09/17 02:58:58;;;;;;;58.03;3.70;;;;;;;;;;4945987;28;20938;-73
2023/09/17 03:01:25;;;;;;;56.60;2.70;;;;;;;;;;4946252;28;20449;-74
2023/09/17 03:03:52;;;;;;;57.30;3.00;;;;;;;;;;4948716;28;20454;-73
2023/09/17 03:06:19;;;;;;;57.30;3.30;;;;;;;;;;4934642;29;20495;-74
2023/09/17 03:08:46;;;;;;;58.13;3.20;;;;;;;;;;4935127;29;20556;-73
2023/09/17 03:11:17;;;;;;;57.00;2.80;;;;;;;;;;4935054;29;20449;-74
2023/09/17 03:13:46;;;;;;;58.03;3.50;;;;;;;;;;4947507;29;20460;-73
2023/09/17 03:16:15;;;;;;;57.37;3.20;;;;;;;;;;4953604;28;20456;-73
2023/09/17 03:18:42;;;;;;;56.93;3.10;;;;;;;;;;4953911;28;20914;-74
2023/09/17 03:21:09;;;;;;;57.07;3.00;;;;;;;;;;4954270;28;20791;-74
2023/09/17 03:23:36;;;;;;;57.20;2.90;;;;;;;;;;4954148;28;20455;-74
2023/09/17 03:26:04;;;;;;;57.07;3.07;;;;;;;;;;4954032;28;20495;-74
2023/09/17 03:28:33;;;;;;;56.87;2.90;;;;;;;;;;4953864;28;20795;-72
2023/09/17 03:31:01;;;;;;;57.70;3.07;;;;;;;;;;4953739;28;20492;-73
2023/09/17 03:33:29;;;;;;;57.07;3.10;;;;;;;;;;4953691;28;20535;-75
2023/09/17 03:35:56;;;;;;;56.80;2.53;;;;;;;;;;4953762;28;20560;-73
2023/09/17 03:38:23;;;;;;;57.37;3.00;;;;;;;;;;4953596;28;20495;-73
2023/09/17 03:40:50;;;;;;;58.13;3.83;;;;;;;;;;4953554;28;20449;-73
2023/09/17 03:43:17;;;;;;;57.67;3.70;;;;;;;;;;4953554;28;20452;-72
2023/09/17 03:45:46;;;;;;;57.00;3.03;;;;;;;;;;4953330;28;20449;-72
2023/09/17 03:48:13;;;;;;;57.30;3.27;;;;;;;;;;4953270;28;20555;-71
2023/09/17 03:50:40;;;;;;;57.10;2.90;;;;;;;;;;4953667;28;20449;-73
2023/09/17 03:53:08;;;;;;;57.67;3.30;;;;;;;;;;4953663;28;20486;-72
2023/09/17 03:55:35;;;;;;;56.87;2.90;;;;;;;;;;4953274;28;20445;-71
2023/09/17 03:58:03;;;;;;;57.10;3.33;;;;;;;;;;4953185;28;20475;-71
2023/09/17 04:00:30;;;;;;;56.80;2.90;;;;;;;;;;4953074;28;20540;-72
2023/09/17 04:03:00;;;;;;;57.27;2.80;;;;;;;;;;4953509;28;20476;-72
2023/09/17 04:05:28;;;;;;;57.77;3.00;;;;;;;;;;4953255;28;20459;-72
2023/09/17 04:07:55;;;;;;;56.90;3.17;;;;;;;;;;4952871;28;20531;-72
2023/09/17 04:10:22;;;;;;;57.30;3.03;;;;;;;;;;4952644;28;20457;-72
2023/09/17 04:12:49;;;;;;;57.00;2.90;;;;;;;;;;4952986;28;20457;-72
2023/09/17 04:15:20;;;;;;;57.57;3.27;;;;;;;;;;4952954;28;20949;-73
2023/09/17 04:17:47;;;;;;;57.10;3.07;;;;;;;;;;4952664;28;20985;-73
2023/09/17 04:20:18;;;;;;;59.20;3.33;;;;;;;;;;4952872;28;20487;-73
2023/09/17 04:22:46;;;;;;;58.20;3.90;;;;;;;;;;4953013;28;20463;-73
2023/09/17 04:25:14;;;;;;;57.37;2.93;;;;;;;;;;4952767;28;20554;-71
2023/09/17 04:27:42;;;;;;;57.07;3.30;;;;;;;;;;4952439;28;20503;-73
2023/09/17 04:30:09;;;;;;;57.53;3.10;;;;;;;;;;4952857;28;20942;-73
2023/09/17 04:32:37;;;;;;;57.17;3.50;;;;;;;;;;4952931;28;20475;-74
2023/09/17 04:35:07;;;;;;;57.40;3.30;;;;;;;;;;4952757;28;20445;-73
2023/09/17 04:37:35;;;;;;;58.23;3.83;;;;;;;;;;4952191;28;20860;-73
2023/09/17 04:40:08;;;;;;;57.70;4.20;;;;;;;;;;4952742;28;20459;-73
2023/09/17 04:42:35;;;;;;;57.30;3.30;;;;;;;;;;4952902;28;20453;-73
2023/09/17 04:45:04;;;;;;;57.90;4.90;;;;;;;;;;4952642;28;20504;-74
2023/09/17 04:47:31;;;;;;;57.07;2.90;;;;;;;;;;4952171;28;20499;-74
2023/09/17 04:49:58;;;;;;;57.43;3.30;;;;;;;;;;4952642;28;20452;-71
2023/09/17 04:52:25;;;;;;;59.00;4.03;;;;;;;;;;4952916;28;20441;-72
2023/09/17 04:54:54;;;;;;;56.70;2.83;;;;;;;;;;4952183;28;20449;-71
2023/09/17 04:57:21;;;;;;;57.83;3.20;;;;;;;;;;4944128;28;20465;-72
2023/09/17 04:59:49;;;;;;;59.17;3.80;;;;;;;;;;4952583;28;20856;-72
2023/09/17 05:02:16;;;;;;;57.80;3.60;;;;;;;;;;4944208;28;20460;-71
2023/09/17 05:04:44;;;;;;;58.30;3.43;;;;;;;;;;4941277;29;20469;-72
2023/09/17 05:07:11;;;;;;;57.40;3.30;;;;;;;;;;4932932;29;20489;-73
2023/09/17 05:09:39;;;;;;;57.30;3.40;;;;;;;;;;4952486;29;20455;-71
2023/09/17 05:12:08;;;;;;;57.30;3.47;;;;;;;;;;4952569;28;20455;-73
2023/09/17 05:14:36;;;;;;;57.60;2.97;;;;;;;;;;4952376;28;20523;-73
2023/09/17 05:17:03;;;;;;;57.03;2.97;;;;;;;;;;4952193;28;20986;-74
2023/09/17 05:19:30;;;;;;;57.47;3.40;;;;;;;;;;4951881;28;21157;-73
2023/09/17 05:21:57;;;;;;;57.30;3.43;;;;;;;;;;4939153;28;20460;-73
2023/09/17 05:24:24;;;;;;;58.50;3.87;;;;;;;;;;4936651;29;21030;-73
2023/09/17 05:26:51;;;;;;;57.30;3.53;;;;;;;;;;4936563;29;20491;-73
2023/09/17 05:29:20;;;;;;;58.93;4.10;;;;;;;;;;4936966;29;20453;-72
2023/09/17 05:31:47;;;;;;;59.20;4.40;;;;;;;;;;4937143;29;20449;-73
2023/09/17 05:34:15;;;;;;;57.20;3.60;;;;;;;;;;4937061;29;20453;-73
2023/09/17 05:36:42;;;;;;;59.30;4.63;;;;;;;;;;4936801;29;20512;-73
2023/09/17 05:39:09;;;;;;;56.80;2.90;;;;;;;;;;4936578;29;20458;-72
2023/09/17 05:41:39;;;;;;;57.93;3.67;;;;;;;;;;4936652;29;20520;-73
2023/09/17 05:44:06;;;;;;;58.27;3.40;;;;;;;;;;4936932;29;20828;-73
2023/09/17 05:46:35;;;;;;;58.27;4.07;;;;;;;;;;4936071;29;20553;-72
2023/09/17 05:49:02;;;;;;;57.97;4.07;;;;;;;;;;4936698;29;20446;-72
2023/09/17 05:51:29;;;;;;;57.50;3.57;;;;;;;;;;4936486;29;20943;-71
2023/09/17 05:53:56;;;;;;;57.57;3.43;;;;;;;;;;4936528;29;20480;-72
2023/09/17 05:56:23;;;;;;;58.17;3.50;;;;;;;;;;4936126;29;20470;-70
2023/09/17 05:58:50;;;;;;;60.70;4.50;;;;;;;;;;4936250;29;20456;-72
2023/09/17 06:01:17;;;;;;;58.40;5.50;;;;;;;;;;4936154;29;20549;-71
2023/09/17 06:03:46;;;;;;;57.30;3.23;;;;;;;;;;4936497;29;20449;-72
2023/09/17 06:06:13;;;;;;;57.30;3.40;;;;;;;;;;4936296;29;20453;-72
2023/09/17 06:08:40;;;;;;;57.17;3.40;;;;;;;;;;4935958;29;20497;-72
2023/09/17 06:11:07;;;;;;;57.00;2.73;;;;;;;;;;4936221;29;20545;-73
2023/09/17 06:13:34;;;;;;;61.55;3.90;;;;;;;;;;4936181;29;20449;-73
2023/09/17 06:16:01;;;;;;;57.60;3.70;;;;;;;;;;4938284;29;20206;-73
2023/09/17 06:18:32;;;;;;;61.60;3.80;;;;;;;;;;4935160;29;20441;-74
2023/09/17 06:21:00;;;;;;;58.37;4.33;;;;;;;;;;4936184;29;20598;-74
2023/09/17 06:23:28;;;;;;;56.90;3.03;;;;;;;;;;4935983;29;20454;-74
2023/09/17 06:25:55;;;;;;;57.53;3.97;;;;;;;;;;4935843;29;20521;-73
2023/09/17 06:28:22;;;;;;;56.87;2.73;;;;;;;;;;4935382;29;20497;-74
2023/09/17 06:30:49;;;;;;;57.03;2.90;;;;;;;;;;4935952;29;20442;-74
2023/09/17 06:33:16;;;;;;;56.77;2.80;;;;;;;;;;4935496;29;20841;-74
2023/09/17 06:35:43;;;;;;;56.70;2.60;;;;;;;;;;4935666;29;20448;-73
2023/09/17 06:38:12;;;;;;;57.50;3.60;;;;;;;;;;4935291;29;20484;-73
2023/09/17 06:40:39;;;;;;;57.47;2.93;;;;;;;;;;4935445;29;20808;-74
2023/09/17 06:43:06;;;;;;;57.40;2.80;;;;;;;;;;4935523;29;20833;-72
2023/09/17 06:45:33;;;;;;;56.80;3.07;;;;;;;;;;4945414;29;20483;-74
2023/09/17 06:48:00;;;;;;;57.13;3.30;;;;;;;;;;4954473;28;20941;-73
2023/09/17 06:50:27;;;;;;;56.70;2.40;;;;;;;;;;4954518;28;20452;-74
2023/09/17 06:52:54;;;;;;;56.90;3.03;;;;;;;;;;4954761;28;20453;-74
2023/09/17 06:55:23;;;;;;;57.20;2.87;;;;;;;;;;4954506;28;20547;-72
2023/09/17 06:57:50;;;;;;;57.80;4.53;;;;;;;;;;4949654;28;20497;-74
2023/09/17 07:00:17;;;;;;;57.07;3.00;;;;;;;;;;4945954;29;20455;-75
2023/09/17 07:02:44;;;;;;;56.80;2.70;;;;;;;;;;4946604;28;20460;-73
2023/09/17 07:05:12;;;;;;;58.40;2.97;;;;;;;;;;4954322;28;20457;-74
2023/09/17 07:07:39;;;;;;;57.57;3.17;;;;;;;;;;4943561;28;20492;-73
2023/09/17 07:10:07;;;;;;;56.60;2.60;;;;;;;;;;4942918;29;20903;-74
2023/09/17 07:12:38;;;;;;;56.57;2.93;;;;;;;;;;4934927;29;20454;-74
2023/09/17 07:15:06;;;;;;;57.17;2.80;;;;;;;;;;4948636;29;20460;-73
2023/09/17 07:17:33;;;;;;;56.90;2.90;;;;;;;;;;4953608;28;21020;-73
2023/09/17 07:20:00;;;;;;;56.67;2.57;;;;;;;;;;4954166;28;20449;-75
2023/09/17 07:22:27;;;;;;;56.90;2.80;;;;;;;;;;4946242;28;20501;-74
2023/09/17 07:24:58;;;;;;;56.90;3.27;;;;;;;;;;4941782;28;20476;-74
2023/09/17 07:27:25;;;;;;;57.80;3.60;;;;;;;;;;4950911;29;20488;-73
2023/09/17 07:29:54;;;;;;;56.63;2.90;;;;;;;;;;4953992;28;20457;-75
2023/09/17 07:32:21;;;;;;;56.90;3.10;;;;;;;;;;4953869;28;20448;-74
2023/09/17 07:34:48;;;;;;;58.37;3.60;;;;;;;;;;4945730;29;20455;-75
2023/09/17 07:37:16;;;;;;;57.17;3.10;;;;;;;;;;4953700;28;20471;-75
2023/09/17 07:39:45;;;;;;;56.87;2.80;;;;;;;;;;4953467;28;20471;-74
2023/09/17 07:42:12;;;;;;;57.67;3.10;;;;;;;;;;4953887;28;20449;-74
2023/09/17 07:44:39;;;;;;;57.60;3.60;;;;;;;;;;4953407;28;20461;-75
2023/09/17 07:47:09;;;;;;;56.80;3.00;;;;;;;;;;4952795;28;20468;-74
2023/09/17 07:49:36;;;;;;;56.80;2.67;;;;;;;;;;4953353;28;20543;-74
2023/09/17 07:52:03;;;;;;;57.20;2.97;;;;;;;;;;4953778;28;20440;-75
2023/09/17 07:54:31;;;;;;;56.90;2.70;;;;;;;;;;4953538;28;20537;-75
2023/09/17 07:56:58;;;;;;;57.10;3.97;;;;;;;;;;4953117;28;20480;-73
2023/09/17 07:59:25;;;;;;;57.40;3.33;;;;;;;;;;4953385;28;20835;-72
2023/09/17 08:01:52;;;;;;;57.20;3.10;;;;;;;;;;4953361;28;20457;-75
2023/09/17 08:04:21;;;;;;;56.80;2.83;;;;;;;;;;4953388;28;20460;-74
2023/09/17 08:06:49;;;;;;;56.73;2.77;;;;;;;;;;4953033;28;20464;-71
2023/09/17 08:09:16;;;;;;;56.70;2.40;;;;;;;;;;4953122;28;20495;-72
2023/09/17 08:11:44;;;;;;;56.60;2.63;;;;;;;;;;4953158;28;21036;-73
2023/09/17 08:14:11;;;;;;;56.60;2.70;;;;;;;;;;4953117;28;20960;-74
2023/09/17 08:16:38;;;;;;;57.10;3.03;;;;;;;;;;4952689;28;20484;-72
2023/09/17 08:19:06;;;;;;;57.07;2.93;;;;;;;;;;4953124;28;20449;-74
2023/09/17 08:21:35;;;;;;;57.30;3.00;;;;;;;;;;4953149;28;20508;-74
2023/09/17 08:24:02;;;;;;;56.93;2.90;;;;;;;;;;4953156;28;20472;-78
2023/09/17 08:26:29;;;;;;;57.37;3.27;;;;;;;;;;4952733;28;20564;-74
2023/09/17 08:28:56;;;;;;;57.73;2.93;;;;;;;;;;4953087;28;20485;-74
2023/09/17 08:31:25;;;;;;;56.77;3.00;;;;;;;;;;4953129;28;20809;-75
2023/09/17 08:33:52;;;;;;;56.97;3.17;;;;;;;;;;4953071;28;20545;-72
2023/09/17 08:36:21;;;;;;;57.27;2.80;;;;;;;;;;4952641;28;20456;-73
2023/09/17 08:38:50;;;;;;;57.07;3.17;;;;;;;;;;4952561;28;20457;-72
2023/09/17 08:41:17;;;;;;;57.47;3.03;;;;;;;;;;4952884;28;20452;-74
2023/09/17 08:43:45;;;;;;;56.77;2.43;;;;;;;;;;4953248;28;20508;-74
2023/09/17 08:46:12;;;;;;;56.67;2.33;;;;;;;;;;4952650;28;20459;-72
2023/09/17 08:48:39;;;;;;;58.00;2.90;;;;;;;;;;4952690;28;20492;-74
2023/09/17 08:51:11;;;;;;;57.03;2.83;;;;;;;;;;4952891;28;20449;-72
2023/09/17 08:53:41;;;;;;;57.07;2.97;;;;;;;;;;4952692;28;20539;-73
2023/09/17 08:56:13;;;;;;;58.07;3.20;;;;;;;;;;4952523;28;20460;-73
2023/09/17 08:58:46;;;;;;;56.50;2.50;;;;;;;;;;4956797;28;20484;-74
2023/09/17 09:01:15;;;;;;;57.67;3.10;;;;;;;;;;4956644;28;20465;-73
2023/09/17 09:03:43;;;;;;;56.30;2.20;;;;;;;;;;4956669;28;20452;-74
2023/09/17 09:06:10;;;;;;;57.00;2.87;;;;;;;;;;4956282;28;20459;-74
2023/09/17 09:08:38;;;;;;;56.60;2.70;;;;;;;;;;4956262;28;20499;-74
2023/09/17 09:11:05;;;;;;;56.60;2.60;;;;;;;;;;4956765;28;20452;-74
2023/09/17 09:13:34;;;;;;;57.10;2.87;;;;;;;;;;4956452;28;20463;-74
2023/09/17 09:16:01;;;;;;;56.20;2.30;;;;;;;;;;4956205;28;20453;-74
2023/09/17 09:18:29;;;;;;;57.77;3.20;;;;;;;;;;4956158;28;20460;-73
2023/09/17 09:20:56;;;;;;;57.50;2.50;;;;;;;;;;4956262;28;20464;-75
2023/09/17 09:23:23;;;;;;;56.10;2.20;;;;;;;;;;4956200;28;20452;-75
2023/09/17 09:25:50;;;;;;;56.80;2.70;;;;;;;;;;4956186;28;20458;-75
2023/09/17 09:28:17;;;;;;;57.27;2.43;;;;;;;;;;4956083;28;21047;-75
2023/09/17 09:30:46;;;;;;;57.70;2.47;;;;;;;;;;4956176;28;20474;-76
2023/09/17 09:33:13;;;;;;;56.80;2.30;;;;;;;;;;4956072;28;20476;-76
2023/09/17 09:35:42;;;;;;;56.17;1.97;;;;;;;;;;4955823;28;20453;-74
2023/09/17 09:38:09;;;;;;;56.40;2.10;;;;;;;;;;4955555;28;20492;-73
2023/09/17 09:40:37;;;;;;;56.20;2.10;;;;;;;;;;4955807;28;20456;-76
2023/09/17 09:43:05;;;;;;;56.53;2.00;;;;;;;;;;4955913;28;20956;-75
2023/09/17 09:45:32;;;;;;;56.57;2.20;;;;;;;;;;4955816;28;20452;-73
2023/09/17 09:48:00;;;;;;;55.80;1.93;;;;;;;;;;4955485;28;20468;-73
2023/09/17 09:50:30;;;;;;;56.30;2.20;;;;;;;;;;4955569;28;20688;-73
2023/09/17 09:52:57;;;;;;;56.60;2.47;;;;;;;;;;4955760;28;20541;-73
2023/09/17 09:55:24;;;;;;;56.10;2.00;;;;;;;;;;4956010;28;20451;-72
2023/09/17 09:57:52;;;;;;;56.20;1.90;;;;;;;;;;4955088;28;20461;-74
2023/09/17 10:00:26;;;;;;;56.60;2.67;;;;;;;;;;4955502;28;20821;-74
2023/09/17 10:02:53;;;;;;;55.73;2.00;;;;;;;;;;4955336;28;20448;-74
2023/09/17 10:05:34;;;;;;;56.20;2.47;;;;;;;;;;4955570;28;20449;-74
2023/09/17 10:08:02;;;;;;;55.50;1.73;;;;;;;;;;4954653;28;20544;-74
2023/09/17 10:10:30;;;;;;;55.30;1.80;;;;;;;;;;4954636;28;20554;-72
2023/09/17 10:12:58;;;;;;;56.00;1.90;;;;;;;;;;4946030;29;20455;-74
2023/09/17 10:15:25;;;;;;;55.33;2.13;;;;;;;;;;4955028;28;20543;-74
2023/09/17 10:17:52;;;;;;;55.47;1.80;;;;;;;;;;4952251;28;20682;-75
2023/09/17 10:20:21;;;;;;;55.10;1.83;;;;;;;;;;4944036;29;20446;-74
2023/09/17 10:22:50;;;;;;;55.20;1.83;;;;;;;;;;4945994;29;20464;-74
2023/09/17 10:25:18;;;;;;;55.30;1.80;;;;;;;;;;4946890;28;20945;-72
2023/09/17 10:27:46;;;;;;;55.30;1.80;;;;;;;;;;4944523;28;20477;-73
2023/09/17 10:30:14;;;;;;;55.50;2.23;;;;;;;;;;4943407;29;20514;-73
2023/09/17 10:32:42;;;;;;;56.77;2.30;;;;;;;;;;4953084;29;20884;-74
2023/09/17 10:35:10;;;;;;;54.80;1.60;;;;;;;;;;4954849;28;20515;-74
2023/09/17 10:37:38;;;;;;;54.97;1.80;;;;;;;;;;4945836;28;20480;-74
2023/09/17 10:40:10;;;;;;;55.30;2.13;;;;;;;;;;4943591;29;20450;-74
2023/09/17 10:42:38;;;;;;;56.20;2.10;;;;;;;;;;4944110;29;20453;-73
2023/09/17 10:45:07;;;;;;;56.20;2.60;;;;;;;;;;4946706;28;20472;-73
2023/09/17 10:47:35;;;;;;;55.20;2.03;;;;;;;;;;4946069;28;20481;-74
2023/09/17 10:50:03;;;;;;;54.87;1.50;;;;;;;;;;4943222;29;20489;-72
2023/09/17 10:52:31;;;;;;;55.67;1.80;;;;;;;;;;4943379;29;20529;-73
2023/09/17 10:54:58;;;;;;;55.27;1.90;;;;;;;;;;4946524;29;20821;-73
2023/09/17 10:57:31;;;;;;;55.27;1.60;;;;;;;;;;4946061;28;20476;-74
2023/09/17 10:59:59;;;;;;;55.77;2.03;;;;;;;;;;4943344;29;20791;-74
2023/09/17 11:02:28;;;;;;;55.50;1.70;;;;;;;;;;4943328;29;20552;-75
2023/09/17 11:04:57;;;;;;;54.73;1.50;;;;;;;;;;4945941;29;20551;-74
2023/09/17 11:07:24;;;;;;;55.20;1.83;;;;;;;;;;4953703;28;20559;-74
2023/09/17 11:09:52;;;;;;;55.10;1.73;;;;;;;;;;4943817;28;20502;-75
2023/09/17 11:12:22;;;;;;;55.07;1.60;;;;;;;;;;4949188;29;20453;-73
2023/09/17 11:14:52;;;;;;;57.13;2.03;;;;;;;;;;4946039;28;20552;-72
2023/09/17 11:17:19;;;;;;;55.10;1.60;;;;;;;;;;4946259;28;20849;-72
2023/09/17 11:19:46;;;;;;;57.00;2.67;;;;;;;;;;4951415;28;20460;-73
2023/09/17 11:22:14;;;;;;;55.40;1.80;;;;;;;;;;4942673;29;20461;-73
2023/09/17 11:24:41;;;;;;;55.50;1.80;;;;;;;;;;4943597;29;20458;-73
2023/09/17 11:27:08;;;;;;;54.97;2.07;;;;;;;;;;4945920;28;20461;-75
2023/09/17 11:29:39;;;;;;;55.00;1.77;;;;;;;;;;4945654;28;20604;-73
2023/09/17 11:32:07;;;;;;;55.03;2.00;;;;;;;;;;4934921;29;20968;-73
2023/09/17 11:34:36;;;;;;;55.23;1.80;;;;;;;;;;4934478;29;20460;-73
2023/09/17 11:37:04;;;;;;;55.27;2.00;;;;;;;;;;4934428;29;20477;-74
2023/09/17 11:39:31;;;;;;;54.97;1.90;;;;;;;;;;4934522;29;20960;-73
2023/09/17 11:42:03;;;;;;;54.87;1.67;;;;;;;;;;4953350;29;20457;-74
2023/09/17 11:44:31;;;;;;;54.70;1.73;;;;;;;;;;4953654;28;20464;-74
2023/09/17 11:46:58;;;;;;;56.10;2.10;;;;;;;;;;4953016;28;20914;-72
2023/09/17 11:49:27;;;;;;;55.20;2.00;;;;;;;;;;4953283;28;20489;-73
2023/09/17 11:51:57;;;;;;;55.20;1.87;;;;;;;;;;4953789;28;20455;-73
2023/09/17 11:54:30;;;;;;;54.77;1.80;;;;;;;;;;4953413;28;20461;-73
2023/09/17 11:56:57;;;;;;;55.10;1.97;;;;;;;;;;4953145;28;20477;-75
2023/09/17 11:59:26;;;;;;;55.70;2.07;;;;;;;;;;4953260;28;20455;-73
2023/09/17 12:01:54;;;;;;;55.20;2.20;;;;;;;;;;4953249;28;20824;-74
2023/09/17 12:04:24;;;;;;;55.10;1.60;;;;;;;;;;4953431;28;20877;-73
2023/09/17 12:06:52;;;;;;;55.20;1.67;;;;;;;;;;4952922;28;20475;-74
2023/09/17 12:09:28;;;;;;;55.60;1.90;;;;;;;;;;4953239;28;20484;-74
2023/09/17 12:11:56;;;;;;;55.07;1.80;;;;;;;;;;4953129;28;20547;-75
2023/09/17 12:14:24;;;;;;;55.10;1.50;;;;;;;;;;4952426;28;20482;-74
2023/09/17 12:16:51;;;;;;;55.30;1.97;;;;;;;;;;4942876;28;20565;-75
2023/09/17 12:19:19;;;;;;;54.97;1.60;;;;;;;;;;4939625;29;20457;-74
2023/09/17 12:21:47;;;;;;;55.40;2.00;;;;;;;;;;4937198;28;20480;-75
2023/09/17 12:24:28;;;;;;;54.90;1.60;;;;;;;;;;4952892;28;20942;-75
2023/09/17 12:27:19;;;;;;;55.00;1.70;;;;;;;;;;4950404;28;20472;-75
2023/09/17 12:29:47;;;;;;;54.97;1.70;;;;;;;;;;4942661;29;20501;-74
2023/09/17 12:32:17;;;;;;;55.60;2.00;;;;;;;;;;4947558;28;20454;-74
2023/09/17 12:34:44;;;;;;;55.30;1.90;;;;;;;;;;4941317;29;20485;-73
2023/09/17 12:37:12;;;;;;;54.97;1.60;;;;;;;;;;4933137;29;20548;-73
2023/09/17 12:39:43;;;;;;;55.07;1.50;;;;;;;;;;4933537;29;20812;-73
2023/09/17 12:42:10;;;;;;;55.20;1.90;;;;;;;;;;4945924;29;20449;-73
2023/09/17 12:44:37;;;;;;;55.07;1.70;;;;;;;;;;4952731;28;20950;-74
2023/09/17 12:47:04;;;;;;;54.97;1.70;;;;;;;;;;4952497;28;20820;-74
2023/09/17 12:49:32;;;;;;;55.27;1.60;;;;;;;;;;4952562;28;20485;-74
2023/09/17 12:51:59;;;;;;;55.30;1.90;;;;;;;;;;4952805;28;20472;-74
2023/09/17 12:54:26;;;;;;;55.10;1.80;;;;;;;;;;4952875;28;20448;-74
2023/09/17 12:56:54;;;;;;;55.03;1.57;;;;;;;;;;4952388;28;20481;-74
2023/09/17 12:59:28;;;;;;;55.10;1.70;;;;;;;;;;4952758;28;20458;-75
2023/09/17 13:01:55;;;;;;;55.20;2.10;;;;;;;;;;4952666;28;20453;-74
2023/09/17 13:04:32;;;;;;;54.80;1.70;;;;;;;;;;4952725;28;20461;-73
2023/09/17 13:07:00;;;;;;;54.50;1.50;;;;;;;;;;4952223;28;20479;-72
2023/09/17 13:09:27;;;;;;;55.23;1.80;;;;;;;;;;4952528;28;20490;-74
2023/09/17 13:11:56;;;;;;;55.30;2.27;;;;;;;;;;4952581;28;20453;-73
2023/09/17 13:14:23;;;;;;;55.47;1.90;;;;;;;;;;4952488;28;20456;-73
2023/09/17 13:16:50;;;;;;;55.27;2.00;;;;;;;;;;4952132;28;20464;-73
2023/09/17 13:19:18;;;;;;;55.10;1.70;;;;;;;;;;4952467;28;20452;-74
2023/09/17 13:21:45;;;;;;;54.67;1.73;;;;;;;;;;4952382;28;20449;-73
2023/09/17 13:24:12;;;;;;;54.57;1.50;;;;;;;;;;4952486;28;20449;-73
2023/09/17 13:26:40;;;;;;;54.80;1.70;;;;;;;;;;4952197;28;20477;-73
2023/09/17 13:29:08;;;;;;;54.50;1.63;;;;;;;;;;4952092;28;20921;-72
2023/09/17 13:31:36;;;;;;;54.77;1.90;;;;;;;;;;4952745;28;20457;-72
2023/09/17 13:34:03;;;;;;;54.90;1.70;;;;;;;;;;4952466;28;20456;-71
2023/09/17 13:36:31;;;;;;;54.70;1.70;;;;;;;;;;4952113;28;20472;-71
2023/09/17 13:38:59;;;;;;;55.00;1.90;;;;;;;;;;4952098;28;20476;-72
2023/09/17 13:41:28;;;;;;;54.70;1.53;;;;;;;;;;4952414;28;20468;-72
2023/09/17 13:43:56;;;;;;;54.60;1.63;;;;;;;;;;4953103;28;20478;-72
2023/09/17 13:46:24;;;;;;;54.67;1.90;;;;;;;;;;4955615;28;20456;-72
2023/09/17 13:48:51;;;;;;;54.57;1.83;;;;;;;;;;4955710;28;20459;-73
2023/09/17 13:51:18;;;;;;;54.70;1.70;;;;;;;;;;4955970;28;20547;-70
2023/09/17 13:53:46;;;;;;;54.70;2.00;;;;;;;;;;4955603;28;20453;-72
2023/09/17 13:56:13;;;;;;;54.57;1.70;;;;;;;;;;4955291;28;20453;-71
2023/09/17 13:58:40;;;;;;;54.60;1.60;;;;;;;;;;4955815;28;20816;-71
2023/09/17 14:01:07;;;;;;;54.70;1.83;;;;;;;;;;4936600;29;20822;-71
2023/09/17 14:03:35;;;;;;;54.70;1.90;;;;;;;;;;4936599;29;20931;-72
2023/09/17 14:06:02;;;;;;;54.60;1.80;;;;;;;;;;4936181;29;20504;-72
2023/09/17 14:08:34;;;;;;;54.70;1.90;;;;;;;;;;4936099;29;20962;-72
2023/09/17 14:11:02;;;;;;;54.90;1.80;;;;;;;;;;4935941;29;20497;-72
2023/09/17 14:13:29;;;;;;;55.00;2.00;;;;;;;;;;4941046;29;20468;-72
2023/09/17 14:15:56;;;;;;;54.37;1.70;;;;;;;;;;4945465;28;20448;-72
2023/09/17 14:18:23;;;;;;;55.30;2.43;;;;;;;;;;4942929;29;20469;-72
2023/09/17 14:20:52;;;;;;;54.47;1.60;;;;;;;;;;4939754;28;20445;-72
2023/09/17 14:23:19;;;;;;;54.80;1.70;;;;;;;;;;4948475;29;20453;-71
2023/09/17 14:25:46;;;;;;;54.90;2.10;;;;;;;;;;4954235;28;20461;-72
2023/09/17 14:28:13;;;;;;;54.70;1.67;;;;;;;;;;4943518;29;20480;-72
2023/09/17 14:30:40;;;;;;;55.40;2.00;;;;;;;;;;4935653;29;21048;-72
2023/09/17 14:33:07;;;;;;;54.87;1.50;;;;;;;;;;4946910;29;20908;-73
2023/09/17 14:35:34;;;;;;;54.87;1.90;;;;;;;;;;4954969;28;20456;-73